Time;durP1;ratioP1;P1;durP2;ratioP2;P2;SDS_P1;SDS_P2;PMS_P1;PMS_P2;Temp;Humidity;BMP_temperature;BMP_pressure;BME280_temperature;BME280_humidity;BME280_pressure;Samples;Min_cycle;Max_cycle;Signal;HPM_P1;HPM_P2
2023/03/11 00:01:26;;;;;;;0.10;0.10;;;;;;;;;;5048152;28;20079;-73
2023/03/11 00:03:52;;;;;;;0.10;0.10;;;;;;;;;;5059386;28;20025;-72
2023/03/11 00:06:17;;;;;;;0.10;0.10;;;;;;;;;;5069276;28;20107;-72
2023/03/11 00:08:43;;;;;;;1.23;1.23;;;;;;;;;;5051681;28;20056;-72
2023/03/11 00:11:09;;;;;;;0.20;0.20;;;;;;;;;;5067875;28;20021;-71
2023/03/11 00:13:35;;;;;;;1.67;1.58;;;;;;;;;;5050450;28;20027;-71
2023/03/11 00:16:01;;;;;;;0.10;0.10;;;;;;;;;;5031726;28;20112;-72
2023/03/11 00:18:30;;;;;;;0.20;0.20;;;;;;;;;;5049333;28;20028;-72
2023/03/11 00:20:57;;;;;;;0.10;0.10;;;;;;;;;;5031195;28;20116;-72
2023/03/11 00:23:23;;;;;;;0.10;0.10;;;;;;;;;;5047540;28;20029;-72
2023/03/11 00:25:49;;;;;;;0.10;0.10;;;;;;;;;;5048132;28;20033;-72
2023/03/11 00:28:15;;;;;;;0.10;0.10;;;;;;;;;;5048205;28;20457;-71
2023/03/11 00:30:41;;;;;;;0.22;0.22;;;;;;;;;;5051701;28;20044;-71
2023/03/11 00:33:08;;;;;;;0.20;0.20;;;;;;;;;;5053013;28;20110;-72
2023/03/11 00:35:34;;;;;;;0.82;0.82;;;;;;;;;;5035211;28;20060;-73
2023/03/11 00:38:01;;;;;;;0.10;0.10;;;;;;;;;;5034909;28;20095;-72
2023/03/11 00:40:28;;;;;;;0.28;0.28;;;;;;;;;;5051883;28;20029;-72
2023/03/11 00:42:54;;;;;;;0.30;0.30;;;;;;;;;;5051502;28;20589;-72
2023/03/11 00:45:19;;;;;;;0.17;0.17;;;;;;;;;;5051896;28;20106;-71
2023/03/11 00:47:45;;;;;;;0.20;0.20;;;;;;;;;;5055636;28;20371;-72
2023/03/11 00:50:13;;;;;;;0.68;0.68;;;;;;;;;;5055329;28;20041;-72
2023/03/11 00:52:39;;;;;;;1.50;1.10;;;;;;;;;;5056944;28;20033;-72
2023/03/11 00:55:05;;;;;;;3.65;1.58;;;;;;;;;;5058027;28;20362;-71
2023/03/11 00:57:32;;;;;;;0.55;0.55;;;;;;;;;;5056164;28;20033;-71
2023/03/11 00:59:58;;;;;;;0.38;0.38;;;;;;;;;;5055324;28;20017;-72
2023/03/11 01:02:23;;;;;;;0.82;0.82;;;;;;;;;;5056542;28;20385;-72
2023/03/11 01:04:53;;;;;;;0.47;0.47;;;;;;;;;;5056751;28;20031;-72
2023/03/11 01:07:18;;;;;;;0.52;0.52;;;;;;;;;;5054935;28;20392;-72
2023/03/11 01:09:44;;;;;;;0.35;0.35;;;;;;;;;;5055729;28;20037;-71
2023/03/11 01:12:09;;;;;;;0.75;0.75;;;;;;;;;;5056445;28;20112;-72
2023/03/11 01:14:34;;;;;;;0.10;0.10;;;;;;;;;;5054431;28;20402;-71
2023/03/11 01:17:00;;;;;;;0.60;0.57;;;;;;;;;;5074922;28;20032;-71
2023/03/11 01:19:25;;;;;;;0.10;0.10;;;;;;;;;;5074817;28;20032;-71
2023/03/11 01:21:52;;;;;;;0.98;0.98;;;;;;;;;;5074805;28;20392;-72
2023/03/11 01:24:18;;;;;;;0.10;0.10;;;;;;;;;;5076080;28;20028;-72
2023/03/11 01:26:43;;;;;;;0.10;0.10;;;;;;;;;;5058296;28;20167;-72
2023/03/11 01:29:09;;;;;;;0.30;0.30;;;;;;;;;;5075018;28;20042;-72
2023/03/11 01:31:34;;;;;;;0.32;0.32;;;;;;;;;;5076082;28;20126;-72
2023/03/11 01:34:00;;;;;;;0.30;0.30;;;;;;;;;;5074365;28;20048;-72
2023/03/11 01:36:25;;;;;;;3.70;2.92;;;;;;;;;;5074570;28;20078;-72
2023/03/11 01:38:51;;;;;;;0.20;0.20;;;;;;;;;;5074528;28;20020;-72
2023/03/11 01:41:17;;;;;;;0.10;0.10;;;;;;;;;;5074551;28;20396;-73
2023/03/11 01:43:42;;;;;;;0.10;0.10;;;;;;;;;;5074949;28;20037;-73
2023/03/11 01:46:13;;;;;;;0.22;0.22;;;;;;;;;;5072974;28;20052;-73
2023/03/11 01:48:41;;;;;;;0.85;0.85;;;;;;;;;;5054806;28;20112;-72
2023/03/11 01:51:06;;;;;;;3.13;2.85;;;;;;;;;;5054307;28;20086;-72
2023/03/11 01:53:32;;;;;;;0.10;0.10;;;;;;;;;;5054169;28;20473;-72
2023/03/11 01:55:58;;;;;;;0.10;0.10;;;;;;;;;;5054095;28;20381;-72
2023/03/11 01:58:25;;;;;;;0.10;0.10;;;;;;;;;;5054399;28;20029;-74
2023/03/11 02:00:51;;;;;;;0.10;0.10;;;;;;;;;;5054258;28;20021;-73
2023/03/11 02:03:20;;;;;;;0.10;0.10;;;;;;;;;;5057371;28;20025;-72
2023/03/11 02:05:46;;;;;;;0.10;0.10;;;;;;;;;;5075291;28;20476;-72
2023/03/11 02:08:11;;;;;;;0.10;0.10;;;;;;;;;;5074255;28;20036;-72
2023/03/11 02:10:39;;;;;;;0.17;0.15;;;;;;;;;;5074213;28;20039;-72
2023/03/11 02:13:05;;;;;;;0.10;0.10;;;;;;;;;;5057710;28;20056;-72
2023/03/11 02:15:30;;;;;;;0.10;0.10;;;;;;;;;;5073986;28;20060;-72
2023/03/11 02:17:56;;;;;;;0.10;0.10;;;;;;;;;;5073638;28;20040;-71
2023/03/11 02:20:22;;;;;;;0.10;0.10;;;;;;;;;;5057214;28;20075;-70
2023/03/11 02:22:48;;;;;;;0.13;0.13;;;;;;;;;;5073677;28;20051;-72
2023/03/11 02:25:19;;;;;;;0.10;0.10;;;;;;;;;;5074313;28;20491;-70
2023/03/11 02:27:47;;;;;;;0.10;0.10;;;;;;;;;;5053471;28;20111;-71
2023/03/11 02:30:14;;;;;;;0.10;0.10;;;;;;;;;;5053686;28;20028;-71
2023/03/11 02:32:43;;;;;;;0.10;0.10;;;;;;;;;;5054024;28;20114;-73
2023/03/11 02:35:08;;;;;;;0.22;0.22;;;;;;;;;;5053575;28;20040;-71
2023/03/11 02:37:34;;;;;;;1.33;1.25;;;;;;;;;;5054091;28;20020;-70
2023/03/11 02:40:15;;;;;;;0.20;0.20;;;;;;;;;;5053496;28;20029;-70
2023/03/11 02:42:41;;;;;;;2.90;1.17;;;;;;;;;;5053409;28;20021;-73
2023/03/11 02:45:08;;;;;;;0.30;0.30;;;;;;;;;;5054776;28;20033;-71
2023/03/11 02:47:34;;;;;;;0.10;0.10;;;;;;;;;;5054756;28;20376;-72
2023/03/11 02:50:00;;;;;;;0.30;0.30;;;;;;;;;;5036751;28;20068;-71
2023/03/11 02:52:27;;;;;;;0.10;0.10;;;;;;;;;;5053386;28;20079;-71
2023/03/11 02:54:53;;;;;;;0.10;0.10;;;;;;;;;;5053190;28;20500;-71
2023/03/11 02:57:19;;;;;;;0.10;0.10;;;;;;;;;;5054072;28;20013;-72
2023/03/11 02:59:44;;;;;;;0.10;0.10;;;;;;;;;;5053022;28;20415;-71
2023/03/11 03:02:12;;;;;;;0.10;0.10;;;;;;;;;;5052942;28;20032;-72
2023/03/11 03:04:38;;;;;;;0.38;0.38;;;;;;;;;;5036409;28;20033;-71
2023/03/11 03:07:03;;;;;;;0.00;0.00;;;;;;;;;;5054152;28;20083;-70
2023/03/11 03:09:30;;;;;;;0.10;0.10;;;;;;;;;;5052663;28;20501;-70
2023/03/11 03:11:55;;;;;;;0.10;0.10;;;;;;;;;;5054123;28;20040;-71
2023/03/11 03:14:21;;;;;;;0.10;0.10;;;;;;;;;;5054841;28;20040;-71
2023/03/11 03:16:47;;;;;;;0.10;0.10;;;;;;;;;;5052767;28;20055;-71
2023/03/11 03:19:12;;;;;;;2.10;2.00;;;;;;;;;;5052509;28;20064;-71
2023/03/11 03:21:38;;;;;;;0.30;0.30;;;;;;;;;;5052938;28;20079;-71
2023/03/11 03:24:04;;;;;;;0.10;0.10;;;;;;;;;;5051614;28;20086;-71
2023/03/11 03:26:30;;;;;;;0.10;0.10;;;;;;;;;;5050816;28;20381;-72
2023/03/11 03:28:56;;;;;;;0.17;0.17;;;;;;;;;;5050404;28;20091;-71
2023/03/11 03:31:22;;;;;;;0.10;0.10;;;;;;;;;;5051687;28;20029;-71
2023/03/11 03:33:47;;;;;;;0.10;0.10;;;;;;;;;;5050190;28;20115;-71
2023/03/11 03:36:14;;;;;;;0.10;0.10;;;;;;;;;;5033978;28;20033;-71
2023/03/11 03:38:42;;;;;;;;;;;;;;;;;;5051315;28;20056;-71
2023/03/11 03:41:08;;;;;;;0.40;0.40;;;;;;;;;;5053110;28;19955;-70
2023/03/11 03:43:37;;;;;;;2.75;2.55;;;;;;;;;;5052688;28;20263;-71
2023/03/11 03:46:04;;;;;;;0.47;0.47;;;;;;;;;;5052044;28;20028;-71
2023/03/11 03:48:36;;;;;;;0.10;0.10;;;;;;;;;;5052326;28;20473;-70
2023/03/11 03:51:05;;;;;;;0.15;0.15;;;;;;;;;;5052588;28;20362;-70
2023/03/11 03:53:32;;;;;;;0.10;0.10;;;;;;;;;;5053422;28;20021;-70
2023/03/11 03:56:01;;;;;;;0.30;0.30;;;;;;;;;;5052425;28;20035;-71
2023/03/11 03:58:26;;;;;;;0.10;0.10;;;;;;;;;;5052069;28;20033;-70
2023/03/11 04:00:54;;;;;;;0.10;0.10;;;;;;;;;;5052052;28;20037;-71
2023/03/11 04:03:20;;;;;;;0.20;0.20;;;;;;;;;;5048432;28;20031;-73
2023/03/11 04:05:51;;;;;;;0.50;0.50;;;;;;;;;;5048149;28;20127;-70
2023/03/11 04:08:17;;;;;;;0.10;0.10;;;;;;;;;;5048385;28;20521;-72
2023/03/11 04:10:43;;;;;;;1.10;1.05;;;;;;;;;;5047941;28;20204;-70
2023/03/11 04:13:08;;;;;;;0.10;0.10;;;;;;;;;;5048368;28;20045;-73
2023/03/11 04:15:36;;;;;;;0.10;0.10;;;;;;;;;;5047843;28;20028;-70
2023/03/11 04:18:01;;;;;;;0.10;0.10;;;;;;;;;;5047893;28;20036;-69
2023/03/11 04:20:29;;;;;;;0.08;0.08;;;;;;;;;;5049257;28;20025;-69
2023/03/11 04:22:55;;;;;;;1.90;1.17;;;;;;;;;;5031404;28;20169;-69
2023/03/11 04:25:22;;;;;;;0.38;0.38;;;;;;;;;;5031641;28;20449;-70
2023/03/11 04:27:48;;;;;;;1.38;1.27;;;;;;;;;;5048043;28;20021;-70
2023/03/11 04:30:15;;;;;;;0.10;0.10;;;;;;;;;;5031244;28;20431;-70
2023/03/11 04:32:42;;;;;;;0.10;0.10;;;;;;;;;;5047815;28;20052;-71
2023/03/11 04:35:08;;;;;;;0.50;0.50;;;;;;;;;;5031635;28;20056;-71
2023/03/11 04:37:34;;;;;;;0.10;0.10;;;;;;;;;;5049232;28;20071;-71
2023/03/11 04:40:00;;;;;;;0.10;0.10;;;;;;;;;;5048251;28;20036;-71
2023/03/11 04:42:26;;;;;;;0.17;0.17;;;;;;;;;;5047760;28;20036;-71
2023/03/11 04:44:52;;;;;;;0.10;0.10;;;;;;;;;;5047561;28;20025;-72
2023/03/11 04:47:19;;;;;;;0.17;0.17;;;;;;;;;;5031366;28;20033;-71
2023/03/11 04:49:44;;;;;;;1.80;0.98;;;;;;;;;;5047639;28;20037;-73
2023/03/11 04:52:11;;;;;;;0.73;0.68;;;;;;;;;;5031588;28;20916;-73
2023/03/11 04:54:36;;;;;;;0.20;0.20;;;;;;;;;;5047689;28;20029;-73
2023/03/11 04:57:02;;;;;;;0.10;0.10;;;;;;;;;;5048871;28;20025;-72
2023/03/11 04:59:27;;;;;;;0.10;0.10;;;;;;;;;;5047193;28;20532;-73
2023/03/11 05:01:53;;;;;;;0.10;0.10;;;;;;;;;;5049408;28;20025;-73
2023/03/11 05:04:18;;;;;;;0.10;0.10;;;;;;;;;;5047308;28;20029;-73
2023/03/11 05:06:44;;;;;;;1.58;1.48;;;;;;;;;;5049045;28;20021;-73
2023/03/11 05:09:11;;;;;;;0.25;0.25;;;;;;;;;;5046935;28;20037;-72
2023/03/11 05:11:38;;;;;;;0.10;0.10;;;;;;;;;;5031747;28;20120;-73
2023/03/11 05:14:04;;;;;;;0.10;0.10;;;;;;;;;;5046754;28;20116;-71
2023/03/11 05:16:30;;;;;;;0.20;0.20;;;;;;;;;;5046206;28;20029;-71
2023/03/11 05:18:55;;;;;;;0.10;0.10;;;;;;;;;;5030674;28;20040;-71
2023/03/11 05:21:21;;;;;;;0.10;0.10;;;;;;;;;;5045344;28;20552;-71
2023/03/11 05:23:47;;;;;;;3.53;0.90;;;;;;;;;;5046572;28;20134;-72
2023/03/11 05:26:13;;;;;;;0.35;0.35;;;;;;;;;;5046300;28;20116;-72
2023/03/11 05:28:41;;;;;;;2.70;2.58;;;;;;;;;;5046453;28;20033;-72
2023/03/11 05:31:10;;;;;;;0.20;0.20;;;;;;;;;;5031764;28;20048;-71
2023/03/11 05:33:37;;;;;;;0.57;0.57;;;;;;;;;;5050764;28;20049;-71
2023/03/11 05:36:06;;;;;;;0.10;0.10;;;;;;;;;;5033868;28;20043;-71
2023/03/11 05:38:31;;;;;;;0.10;0.10;;;;;;;;;;5033880;28;20017;-71
2023/03/11 05:40:57;;;;;;;0.30;0.30;;;;;;;;;;5050032;28;20380;-71
2023/03/11 05:43:22;;;;;;;0.20;0.20;;;;;;;;;;5049976;28;20476;-71
2023/03/11 05:45:52;;;;;;;0.10;0.10;;;;;;;;;;5051302;28;20472;-71
2023/03/11 05:48:18;;;;;;;0.57;0.57;;;;;;;;;;5051173;28;20029;-70
2023/03/11 05:50:43;;;;;;;0.10;0.10;;;;;;;;;;5048909;28;20477;-71
2023/03/11 05:53:09;;;;;;;0.10;0.10;;;;;;;;;;5048830;28;20066;-71
2023/03/11 05:55:34;;;;;;;0.10;0.10;;;;;;;;;;5032749;28;20415;-71
2023/03/11 05:58:00;;;;;;;0.10;0.10;;;;;;;;;;5049544;28;20063;-71
2023/03/11 06:00:28;;;;;;;0.10;0.10;;;;;;;;;;5033403;28;20685;-70
2023/03/11 06:02:55;;;;;;;0.10;0.10;;;;;;;;;;5049239;28;20056;-72
2023/03/11 06:05:21;;;;;;;0.15;0.15;;;;;;;;;;5049874;28;20122;-71
2023/03/11 06:07:49;;;;;;;3.75;3.50;;;;;;;;;;5050061;28;20032;-72
2023/03/11 06:10:15;;;;;;;0.10;0.10;;;;;;;;;;5033717;28;20400;-73
2023/03/11 06:12:40;;;;;;;0.10;0.10;;;;;;;;;;5050149;28;20029;-71
2023/03/11 06:15:20;;;;;;;0.10;0.10;;;;;;;;;;5049879;28;20037;-71
2023/03/11 06:17:46;;;;;;;0.10;0.10;;;;;;;;;;5051614;28;20021;-71
2023/03/11 06:20:11;;;;;;;0.10;0.10;;;;;;;;;;5050486;28;20033;-72
2023/03/11 06:22:38;;;;;;;0.10;0.10;;;;;;;;;;5049631;28;20094;-71
2023/03/11 06:25:03;;;;;;;0.10;0.10;;;;;;;;;;5049679;28;20464;-73
2023/03/11 06:27:31;;;;;;;5.28;4.95;;;;;;;;;;5033931;28;20429;-72
2023/03/11 06:29:57;;;;;;;0.10;0.10;;;;;;;;;;5050034;28;20123;-71
2023/03/11 06:32:23;;;;;;;0.10;0.10;;;;;;;;;;5067264;28;20460;-72
2023/03/11 06:34:50;;;;;;;0.10;0.10;;;;;;;;;;5069958;28;20035;-71
2023/03/11 06:37:16;;;;;;;0.10;0.10;;;;;;;;;;5071006;28;20383;-72
2023/03/11 06:39:41;;;;;;;0.20;0.20;;;;;;;;;;5070193;28;20028;-76
2023/03/11 06:42:10;;;;;;;0.10;0.10;;;;;;;;;;5069428;28;20137;-72
2023/03/11 06:44:36;;;;;;;0.10;0.10;;;;;;;;;;5069122;28;20040;-71
2023/03/11 06:47:02;;;;;;;0.10;0.10;;;;;;;;;;5071212;28;20089;-73
2023/03/11 06:49:28;;;;;;;0.10;0.10;;;;;;;;;;5065236;28;20041;-72
2023/03/11 06:51:54;;;;;;;0.20;0.20;;;;;;;;;;5049352;28;20393;-73
2023/03/11 06:54:19;;;;;;;0.10;0.10;;;;;;;;;;5049152;28;20970;-72
2023/03/11 06:56:45;;;;;;;0.10;0.10;;;;;;;;;;5049245;28;20037;-72
2023/03/11 06:59:13;;;;;;;0.10;0.10;;;;;;;;;;5050420;28;20033;-72
2023/03/11 07:01:38;;;;;;;2.67;2.17;;;;;;;;;;5051681;28;20078;-72
2023/03/11 07:04:05;;;;;;;0.10;0.10;;;;;;;;;;5049483;28;20052;-72
2023/03/11 07:06:32;;;;;;;0.10;0.10;;;;;;;;;;5050761;28;20025;-74
2023/03/11 07:09:12;;;;;;;0.10;0.10;;;;;;;;;;5049375;28;20048;-74
2023/03/11 07:11:41;;;;;;;0.10;0.10;;;;;;;;;;5049312;28;20029;-70
2023/03/11 07:14:10;;;;;;;;;;;;;;;;;;5049665;28;20475;-71
2023/03/11 07:16:39;;;;;;;0.10;0.10;;;;;;;;;;5049022;28;19908;-72
2023/03/11 07:19:14;;;;;;;2.28;2.17;;;;;;;;;;5048699;28;20037;-71
2023/03/11 07:21:40;;;;;;;4.20;1.95;;;;;;;;;;5051489;28;20171;-71
2023/03/11 07:24:06;;;;;;;0.10;0.10;;;;;;;;;;5053670;28;20295;-71
2023/03/11 07:26:33;;;;;;;0.10;0.10;;;;;;;;;;5049269;28;20032;-71
2023/03/11 07:28:59;;;;;;;2.08;1.98;;;;;;;;;;5053232;28;20055;-72
2023/03/11 07:31:28;;;;;;;0.00;0.00;;;;;;;;;;5049966;28;20524;-72
2023/03/11 07:33:55;;;;;;;0.10;0.10;;;;;;;;;;5050112;28;20044;-72
2023/03/11 07:36:22;;;;;;;0.17;0.17;;;;;;;;;;5065805;28;20126;-71
2023/03/11 07:38:48;;;;;;;0.10;0.10;;;;;;;;;;5070139;28;20096;-74
2023/03/11 07:41:13;;;;;;;0.20;0.20;;;;;;;;;;5061185;28;20017;-74
2023/03/11 07:43:40;;;;;;;0.17;0.17;;;;;;;;;;5048963;28;20035;-71
2023/03/11 07:46:09;;;;;;;0.10;0.10;;;;;;;;;;5052509;28;20021;-74
2023/03/11 07:48:34;;;;;;;;;;;;;;;;;;5043739;28;20032;-71
2023/03/11 07:51:01;;;;;;;0.10;0.10;;;;;;;;;;5070093;28;19919;-70
2023/03/11 07:53:27;;;;;;;0.10;0.10;;;;;;;;;;5069173;28;20738;-70
2023/03/11 07:55:56;;;;;;;0.20;0.20;;;;;;;;;;5069137;28;20062;-73
2023/03/11 07:58:21;;;;;;;0.10;0.10;;;;;;;;;;5051339;28;20054;-71
2023/03/11 08:00:47;;;;;;;0.30;0.30;;;;;;;;;;5069763;28;20021;-73
2023/03/11 08:03:13;;;;;;;0.30;0.30;;;;;;;;;;5068019;28;20051;-71
2023/03/11 08:05:38;;;;;;;0.10;0.10;;;;;;;;;;5068759;28;20462;-70
2023/03/11 08:08:04;;;;;;;0.22;0.22;;;;;;;;;;5068359;28;20036;-71
2023/03/11 08:10:29;;;;;;;0.20;0.20;;;;;;;;;;5067644;28;20058;-70
2023/03/11 08:12:55;;;;;;;0.10;0.10;;;;;;;;;;5068221;28;20039;-73
2023/03/11 08:15:20;;;;;;;0.22;0.22;;;;;;;;;;5066971;28;20016;-70
2023/03/11 08:17:46;;;;;;;0.65;0.65;;;;;;;;;;5067249;28;20033;-71
2023/03/11 08:20:11;;;;;;;0.10;0.10;;;;;;;;;;5066041;28;20456;-72
2023/03/11 08:22:37;;;;;;;0.10;0.10;;;;;;;;;;5049579;28;20028;-69
2023/03/11 08:25:03;;;;;;;0.10;0.10;;;;;;;;;;5067081;28;20036;-72
2023/03/11 08:27:28;;;;;;;0.10;0.10;;;;;;;;;;5065977;28;20016;-72
2023/03/11 08:29:54;;;;;;;0.10;0.10;;;;;;;;;;5058645;28;20553;-69
2023/03/11 08:32:19;;;;;;;0.10;0.10;;;;;;;;;;5051600;28;20053;-70
2023/03/11 08:34:45;;;;;;;1.55;1.45;;;;;;;;;;5050150;28;20026;-70
2023/03/11 08:37:10;;;;;;;0.10;0.10;;;;;;;;;;5049062;28;20088;-70
2023/03/11 08:39:36;;;;;;;0.10;0.10;;;;;;;;;;5049271;28;20366;-70
2023/03/11 08:42:02;;;;;;;0.13;0.13;;;;;;;;;;5049554;28;20036;-70
2023/03/11 08:44:27;;;;;;;0.10;0.10;;;;;;;;;;5031386;28;20365;-70
2023/03/11 08:46:53;;;;;;;0.60;0.60;;;;;;;;;;5047965;28;20384;-71
2023/03/11 08:49:18;;;;;;;0.30;0.30;;;;;;;;;;5056588;28;20090;-70
2023/03/11 08:51:44;;;;;;;0.13;0.13;;;;;;;;;;5037082;28;20040;-70
2023/03/11 08:54:09;;;;;;;16.35;2.20;;;;;;;;;;5047786;28;20021;-70
2023/03/11 08:56:34;;;;;;;0.10;0.10;;;;;;;;;;5049316;28;20079;-70
2023/03/11 08:59:00;;;;;;;0.10;0.10;;;;;;;;;;5054687;28;20028;-71
2023/03/11 09:01:25;;;;;;;0.10;0.10;;;;;;;;;;5061263;28;20039;-71
2023/03/11 09:03:51;;;;;;;1.63;0.90;;;;;;;;;;5048850;28;20025;-70
2023/03/11 09:06:17;;;;;;;0.15;0.15;;;;;;;;;;5048286;28;20469;-69
2023/03/11 09:08:43;;;;;;;0.20;0.20;;;;;;;;;;5051620;28;20075;-69
2023/03/11 09:11:09;;;;;;;0.10;0.10;;;;;;;;;;5068142;28;20376;-69
2023/03/11 09:13:35;;;;;;;0.15;0.15;;;;;;;;;;5070742;28;20027;-69
2023/03/11 09:16:00;;;;;;;0.20;0.20;;;;;;;;;;5069388;28;20035;-68
2023/03/11 09:18:28;;;;;;;0.20;0.20;;;;;;;;;;5072705;28;20020;-70
2023/03/11 09:20:57;;;;;;;1.15;1.15;;;;;;;;;;5064076;28;20381;-71
2023/03/11 09:23:22;;;;;;;4.32;3.28;;;;;;;;;;5050898;28;20056;-70
2023/03/11 09:25:47;;;;;;;0.10;0.10;;;;;;;;;;5051078;28;20068;-70
2023/03/11 09:28:13;;;;;;;1.35;0.28;;;;;;;;;;5040996;28;20193;-70
2023/03/11 09:30:38;;;;;;;0.28;0.28;;;;;;;;;;5070876;28;20040;-71
2023/03/11 09:33:04;;;;;;;0.10;0.10;;;;;;;;;;5068206;28;20563;-71
2023/03/11 09:35:29;;;;;;;0.20;0.20;;;;;;;;;;5068039;28;20093;-70
2023/03/11 09:37:55;;;;;;;0.93;0.93;;;;;;;;;;5050587;28;20025;-71
2023/03/11 09:40:21;;;;;;;1.00;1.00;;;;;;;;;;5067284;28;20032;-70
2023/03/11 09:43:05;;;;;;;6.75;1.08;;;;;;;;;;5068856;28;20028;-71
2023/03/11 09:45:33;;;;;;;0.20;0.20;;;;;;;;;;5067669;28;20025;-70
2023/03/11 09:48:07;;;;;;;0.20;0.20;;;;;;;;;;5066353;28;20495;-70
2023/03/11 09:50:45;;;;;;;0.30;0.30;;;;;;;;;;5050269;28;20036;-70
2023/03/11 09:53:17;;;;;;;0.10;0.10;;;;;;;;;;5050111;28;20060;-70
2023/03/11 09:55:44;;;;;;;0.20;0.20;;;;;;;;;;5051510;28;20090;-70
2023/03/11 09:58:13;;;;;;;0.85;0.85;;;;;;;;;;5034373;28;20021;-71
2023/03/11 10:00:38;;;;;;;7.22;0.93;;;;;;;;;;5050459;28;20056;-70
2023/03/11 10:03:06;;;;;;;0.47;0.40;;;;;;;;;;5051805;28;20025;-70
2023/03/11 10:05:32;;;;;;;0.40;0.40;;;;;;;;;;5050372;28;20076;-70
2023/03/11 10:07:57;;;;;;;0.20;0.20;;;;;;;;;;5050191;28;20025;-70
2023/03/11 10:10:23;;;;;;;0.10;0.10;;;;;;;;;;5050137;28;20489;-70
2023/03/11 10:13:07;;;;;;;0.20;0.20;;;;;;;;;;5050291;28;20049;-70
2023/03/11 10:15:32;;;;;;;22.30;1.25;;;;;;;;;;5062232;28;20033;-70
2023/03/11 10:18:36;;;;;;;0.10;0.10;;;;;;;;;;5069894;28;20032;-71
2023/03/11 10:21:04;;;;;;;0.17;0.17;;;;;;;;;;5052398;28;20036;-70
2023/03/11 10:23:52;;;;;;;2.03;1.80;;;;;;;;;;5068624;28;20034;-70
2023/03/11 10:26:25;;;;;;;0.20;0.20;;;;;;;;;;5070370;28;20090;-70
2023/03/11 10:28:57;;;;;;;0.20;0.20;;;;;;;;;;5069902;28;20024;-70
2023/03/11 10:31:25;;;;;;;0.43;0.43;;;;;;;;;;5071071;28;20400;-70
2023/03/11 10:33:56;;;;;;;0.10;0.10;;;;;;;;;;5070532;28;20055;-70
2023/03/11 10:36:23;;;;;;;2.30;0.47;;;;;;;;;;5069880;28;20059;-71
2023/03/11 10:38:50;;;;;;;0.20;0.20;;;;;;;;;;5071682;28;20036;-70
2023/03/11 10:41:19;;;;;;;0.15;0.15;;;;;;;;;;5070748;28;20361;-70
2023/03/11 10:43:48;;;;;;;0.68;0.68;;;;;;;;;;5069550;28;20024;-70
2023/03/11 10:46:18;;;;;;;0.20;0.20;;;;;;;;;;5070737;28;20039;-71
2023/03/11 10:48:44;;;;;;;1.15;1.05;;;;;;;;;;5070750;28;20116;-71
2023/03/11 10:51:21;;;;;;;0.65;0.65;;;;;;;;;;5070699;28;20625;-70
2023/03/11 10:53:50;;;;;;;0.20;0.20;;;;;;;;;;5052781;28;20032;-71
2023/03/11 10:56:29;;;;;;;0.15;0.15;;;;;;;;;;5070931;28;20476;-70
2023/03/11 10:58:54;;;;;;;;;;;;;;;;;;5070768;28;20052;-70
2023/03/11 11:01:20;;;;;;;0.15;0.15;;;;;;;;;;5070336;28;20406;-71
2023/03/11 11:03:48;;;;;;;0.30;0.30;;;;;;;;;;5071079;28;20039;-70
2023/03/11 11:06:33;;;;;;;0.25;0.25;;;;;;;;;;5069087;28;20461;-70
2023/03/11 11:09:19;;;;;;;0.30;0.30;;;;;;;;;;5060633;28;20103;-71
2023/03/11 11:12:04;;;;;;;0.30;0.30;;;;;;;;;;5052569;28;20487;-71
2023/03/11 11:14:46;;;;;;;4.32;1.13;;;;;;;;;;5055885;28;20029;-71
2023/03/11 11:17:29;;;;;;;0.20;0.20;;;;;;;;;;5051957;28;20032;-71
2023/03/11 11:19:56;;;;;;;0.20;0.20;;;;;;;;;;5049981;28;20083;-70
2023/03/11 11:22:23;;;;;;;2.60;0.52;;;;;;;;;;5049873;28;20021;-70
2023/03/11 11:24:52;;;;;;;0.20;0.20;;;;;;;;;;5050146;28;20453;-70
2023/03/11 11:27:17;;;;;;;0.20;0.20;;;;;;;;;;5032154;28;20025;-70
2023/03/11 11:29:43;;;;;;;0.10;0.10;;;;;;;;;;5050228;28;20488;-71
2023/03/11 11:32:15;;;;;;;0.20;0.20;;;;;;;;;;5066954;28;20108;-70
2023/03/11 11:34:41;;;;;;;0.20;0.20;;;;;;;;;;5069881;28;20560;-70
2023/03/11 11:37:10;;;;;;;0.20;0.20;;;;;;;;;;5069089;28;20107;-71
2023/03/11 11:39:43;;;;;;;0.20;0.20;;;;;;;;;;5068311;28;20047;-70
2023/03/11 11:42:10;;;;;;;0.43;0.43;;;;;;;;;;5052273;28;20561;-70
2023/03/11 11:44:36;;;;;;;0.20;0.20;;;;;;;;;;5068857;28;20472;-70
2023/03/11 11:47:20;;;;;;;0.60;0.60;;;;;;;;;;5069541;28;20032;-70
2023/03/11 11:49:54;;;;;;;0.90;0.90;;;;;;;;;;5069658;28;20037;-70
2023/03/11 11:52:23;;;;;;;0.20;0.20;;;;;;;;;;5069650;28;20028;-70
2023/03/11 11:54:48;;;;;;;0.20;0.20;;;;;;;;;;5051881;28;20107;-71
2023/03/11 11:57:15;;;;;;;0.52;0.52;;;;;;;;;;5067394;28;20195;-71
2023/03/11 11:59:41;;;;;;;6.55;0.80;;;;;;;;;;5067871;28;20032;-70
2023/03/11 12:02:12;;;;;;;0.28;0.28;;;;;;;;;;5051630;28;20025;-70
2023/03/11 12:04:57;;;;;;;0.20;0.20;;;;;;;;;;5068106;28;20020;-71
2023/03/11 12:07:28;;;;;;;0.28;0.28;;;;;;;;;;5058799;28;20136;-71
2023/03/11 12:10:13;;;;;;;0.20;0.20;;;;;;;;;;5055597;28;20047;-71
2023/03/11 12:12:45;;;;;;;0.20;0.20;;;;;;;;;;5064891;28;20040;-71
2023/03/11 12:15:17;;;;;;;0.20;0.20;;;;;;;;;;5056488;28;20028;-70
2023/03/11 12:17:45;;;;;;;2.35;1.85;;;;;;;;;;5056943;28;20032;-70
2023/03/11 12:20:13;;;;;;;0.47;0.47;;;;;;;;;;5057802;28;20151;-71
2023/03/11 12:22:54;;;;;;;0.45;0.45;;;;;;;;;;5057577;28;20036;-72
2023/03/11 12:25:26;;;;;;;0.20;0.20;;;;;;;;;;5053740;28;20029;-70
2023/03/11 12:27:57;;;;;;;8.05;3.20;;;;;;;;;;5052569;28;20055;-71
2023/03/11 12:30:28;;;;;;;0.20;0.20;;;;;;;;;;5051530;28;20137;-71
2023/03/11 12:33:03;;;;;;;0.30;0.30;;;;;;;;;;5060858;28;20047;-70
2023/03/11 12:35:29;;;;;;;0.85;0.75;;;;;;;;;;5059284;28;20029;-70
2023/03/11 12:38:01;;;;;;;0.20;0.20;;;;;;;;;;5056458;28;20100;-70
2023/03/11 12:40:45;;;;;;;40.70;2.10;;;;;;;;;;5054579;28;20090;-72
2023/03/11 12:43:34;;;;;;;0.20;0.20;;;;;;;;;;5058452;28;20433;-70
2023/03/11 12:46:00;;;;;;;1.23;1.23;;;;;;;;;;5056387;28;20051;-70
2023/03/11 12:48:28;;;;;;;0.20;0.20;;;;;;;;;;5053726;28;20602;-70
2023/03/11 12:50:58;;;;;;;0.30;0.30;;;;;;;;;;5049285;28;20029;-71
2023/03/11 12:53:41;;;;;;;0.20;0.20;;;;;;;;;;5050818;28;20040;-71
2023/03/11 12:56:25;;;;;;;1.95;1.38;;;;;;;;;;5051190;28;20108;-71
2023/03/11 12:59:09;;;;;;;0.20;0.20;;;;;;;;;;5050899;28;20032;-70
2023/03/11 13:01:35;;;;;;;0.82;0.30;;;;;;;;;;5051523;28;20029;-72
2023/03/11 13:04:22;;;;;;;3.42;0.95;;;;;;;;;;5050608;28;20036;-70
2023/03/11 13:07:03;;;;;;;0.15;0.15;;;;;;;;;;5050166;28;20102;-70
2023/03/11 13:09:28;;;;;;;0.40;0.40;;;;;;;;;;5049325;28;20555;-70
2023/03/11 13:11:54;;;;;;;0.20;0.20;;;;;;;;;;5050724;28;20119;-70
2023/03/11 13:14:22;;;;;;;0.30;0.30;;;;;;;;;;5056161;28;20098;-70
2023/03/11 13:16:48;;;;;;;0.10;0.10;;;;;;;;;;5052666;28;20040;-70
2023/03/11 13:19:42;;;;;;;2.72;2.60;;;;;;;;;;5052462;28;20035;-70
2023/03/11 13:22:28;;;;;;;1.02;0.70;;;;;;;;;;5055651;28;20048;-70
2023/03/11 13:24:53;;;;;;;0.20;0.20;;;;;;;;;;5057879;28;20757;-70
2023/03/11 13:27:28;;;;;;;3.22;1.70;;;;;;;;;;5069731;28;20035;-71
2023/03/11 13:29:53;;;;;;;1.85;0.73;;;;;;;;;;5068959;28;20128;-70
2023/03/11 13:32:31;;;;;;;0.20;0.20;;;;;;;;;;5050928;28;20571;-70
2023/03/11 13:35:11;;;;;;;0.30;0.30;;;;;;;;;;5050406;28;20037;-70
2023/03/11 13:37:50;;;;;;;0.30;0.30;;;;;;;;;;5049862;28;20104;-70
2023/03/11 13:40:31;;;;;;;0.30;0.30;;;;;;;;;;5050358;28;20029;-70
2023/03/11 13:43:02;;;;;;;0.98;0.98;;;;;;;;;;5049396;28;20299;-70
2023/03/11 13:45:33;;;;;;;0.20;0.20;;;;;;;;;;5031824;28;20385;-70
2023/03/11 13:48:14;;;;;;;0.20;0.20;;;;;;;;;;5048439;28;20071;-70
2023/03/11 13:50:49;;;;;;;0.20;0.20;;;;;;;;;;5058749;28;20040;-70
2023/03/11 13:53:27;;;;;;;0.20;0.20;;;;;;;;;;5048505;28;20579;-70
2023/03/11 13:55:53;;;;;;;3.20;0.60;;;;;;;;;;5048313;28;20040;-71
2023/03/11 13:58:23;;;;;;;1.75;1.15;;;;;;;;;;5065012;28;20024;-71
2023/03/11 14:00:58;;;;;;;4.00;1.52;;;;;;;;;;5068678;28;20498;-71
2023/03/11 14:03:25;;;;;;;2.42;1.80;;;;;;;;;;5066159;28;20040;-70
2023/03/11 14:05:59;;;;;;;0.60;0.60;;;;;;;;;;5068092;28;20459;-71
2023/03/11 14:08:30;;;;;;;0.40;0.40;;;;;;;;;;5066715;28;20861;-71
2023/03/11 14:10:57;;;;;;;0.20;0.20;;;;;;;;;;5067468;28;20036;-70
2023/03/11 14:13:26;;;;;;;1.25;0.75;;;;;;;;;;5065715;28;20085;-70
2023/03/11 14:15:55;;;;;;;6.43;1.02;;;;;;;;;;5049957;28;20024;-70
2023/03/11 14:18:25;;;;;;;4.87;0.57;;;;;;;;;;5065837;28;20024;-71
2023/03/11 14:20:50;;;;;;;0.98;0.50;;;;;;;;;;5067976;28;20028;-70
2023/03/11 14:23:17;;;;;;;0.20;0.20;;;;;;;;;;5050247;28;20170;-71
2023/03/11 14:25:43;;;;;;;1.65;0.65;;;;;;;;;;5057206;28;20036;-70
2023/03/11 14:28:17;;;;;;;2.85;0.52;;;;;;;;;;5047940;28;20052;-70
2023/03/11 14:30:53;;;;;;;1.17;1.08;;;;;;;;;;5047578;28;20559;-71
2023/03/11 14:33:20;;;;;;;6.82;1.00;;;;;;;;;;5050031;28;20076;-72
2023/03/11 14:35:56;;;;;;;1.52;0.68;;;;;;;;;;5058771;28;20029;-71
2023/03/11 14:38:23;;;;;;;0.30;0.20;;;;;;;;;;5058616;28;20043;-70
2023/03/11 14:40:51;;;;;;;0.85;0.20;;;;;;;;;;5064309;28;20032;-71
2023/03/11 14:43:18;;;;;;;0.32;0.32;;;;;;;;;;5050517;28;20387;-70
2023/03/11 14:45:44;;;;;;;2.58;0.70;;;;;;;;;;5047436;28;20037;-70
2023/03/11 14:48:16;;;;;;;0.63;0.50;;;;;;;;;;5048685;28;20036;-70
2023/03/11 14:50:43;;;;;;;0.20;0.20;;;;;;;;;;5031095;28;20495;-71